sensor_id;sensor_type;location;lat;lon;timestamp;P1;durP1;ratioP1;P2;durP2;ratioP2
50531;SDS011;36483;37.396;-122.212;2022-07-18T00:00:42;8.75;;;3.10;;
50531;SDS011;36483;37.396;-122.212;2022-07-18T00:03:08;8.57;;;3.22;;
50531;SDS011;36483;37.396;-122.212;2022-07-18T00:05:34;9.52;;;3.42;;
50531;SDS011;36483;37.396;-122.212;2022-07-18T00:08:01;10.13;;;3.17;;
50531;SDS011;36483;37.396;-122.212;2022-07-18T00:10:27;10.18;;;3.67;;
50531;SDS011;36483;37.396;-122.212;2022-07-18T00:12:53;10.20;;;3.22;;
50531;SDS011;36483;37.396;-122.212;2022-07-18T00:15:19;7.18;;;3.50;;
50531;SDS011;36483;37.396;-122.212;2022-07-18T00:17:45;8.73;;;3.60;;
50531;SDS011;36483;37.396;-122.212;2022-07-18T00:20:11;11.40;;;3.55;;
50531;SDS011;36483;37.396;-122.212;2022-07-18T00:22:38;8.07;;;3.78;;
50531;SDS011;36483;37.396;-122.212;2022-07-18T00:25:04;8.57;;;3.83;;
50531;SDS011;36483;37.396;-122.212;2022-07-18T00:27:31;8.52;;;3.90;;
50531;SDS011;36483;37.396;-122.212;2022-07-18T00:29:57;7.57;;;3.40;;
50531;SDS011;36483;37.396;-122.212;2022-07-18T00:32:23;9.10;;;3.38;;
50531;SDS011;36483;37.396;-122.212;2022-07-18T00:34:49;7.90;;;3.53;;
50531;SDS011;36483;37.396;-122.212;2022-07-18T00:37:15;9.40;;;3.47;;
50531;SDS011;36483;37.396;-122.212;2022-07-18T00:39:42;10.15;;;3.85;;
50531;SDS011;36483;37.396;-122.212;2022-07-18T00:42:08;8.25;;;3.47;;
50531;SDS011;36483;37.396;-122.212;2022-07-18T00:44:34;7.07;;;3.40;;
50531;SDS011;36483;37.396;-122.212;2022-07-18T00:47:00;9.43;;;3.60;;
50531;SDS011;36483;37.396;-122.212;2022-07-18T00:49:27;10.02;;;4.07;;
50531;SDS011;36483;37.396;-122.212;2022-07-18T00:51:54;9.32;;;3.50;;
50531;SDS011;36483;37.396;-122.212;2022-07-18T00:54:21;10.15;;;3.67;;
50531;SDS011;36483;37.396;-122.212;2022-07-18T00:56:48;10.43;;;3.78;;
50531;SDS011;36483;37.396;-122.212;2022-07-18T00:59:15;10.48;;;3.72;;
50531;SDS011;36483;37.396;-122.212;2022-07-18T01:01:42;10.52;;;4.13;;
50531;SDS011;36483;37.396;-122.212;2022-07-18T01:04:18;10.68;;;4.13;;
50531;SDS011;36483;37.396;-122.212;2022-07-18T01:06:47;10.88;;;3.90;;
50531;SDS011;36483;37.396;-122.212;2022-07-18T01:09:14;12.68;;;4.20;;
50531;SDS011;36483;37.396;-122.212;2022-07-18T01:11:41;11.05;;;3.90;;
50531;SDS011;36483;37.396;-122.212;2022-07-18T01:14:09;14.00;;;3.75;;
50531;SDS011;36483;37.396;-122.212;2022-07-18T01:16:36;11.23;;;3.95;;
50531;SDS011;36483;37.396;-122.212;2022-07-18T01:19:02;11.90;;;3.90;;
50531;SDS011;36483;37.396;-122.212;2022-07-18T01:21:28;12.50;;;3.70;;
50531;SDS011;36483;37.396;-122.212;2022-07-18T01:23:54;9.32;;;3.65;;
50531;SDS011;36483;37.396;-122.212;2022-07-18T01:26:20;11.43;;;4.30;;
50531;SDS011;36483;37.396;-122.212;2022-07-18T01:28:47;11.77;;;3.97;;
50531;SDS011;36483;37.396;-122.212;2022-07-18T01:31:13;14.38;;;4.28;;
50531;SDS011;36483;37.396;-122.212;2022-07-18T01:33:40;11.55;;;3.92;;
50531;SDS011;36483;37.396;-122.212;2022-07-18T01:36:06;11.90;;;4.20;;
50531;SDS011;36483;37.396;-122.212;2022-07-18T01:38:33;11.68;;;4.05;;
50531;SDS011;36483;37.396;-122.212;2022-07-18T01:41:00;13.10;;;3.80;;
50531;SDS011;36483;37.396;-122.212;2022-07-18T01:43:26;15.90;;;4.20;;
50531;SDS011;36483;37.396;-122.212;2022-07-18T01:45:53;13.88;;;4.55;;
50531;SDS011;36483;37.396;-122.212;2022-07-18T01:48:19;15.13;;;4.35;;
50531;SDS011;36483;37.396;-122.212;2022-07-18T01:50:48;16.20;;;5.32;;
50531;SDS011;36483;37.396;-122.212;2022-07-18T01:53:14;14.15;;;4.57;;
50531;SDS011;36483;37.396;-122.212;2022-07-18T01:55:41;13.75;;;4.50;;
50531;SDS011;36483;37.396;-122.212;2022-07-18T01:58:07;16.08;;;5.05;;
50531;SDS011;36483;37.396;-122.212;2022-07-18T02:00:33;11.70;;;4.20;;
50531;SDS011;36483;37.396;-122.212;2022-07-18T02:02:59;13.77;;;4.35;;
50531;SDS011;36483;37.396;-122.212;2022-07-18T02:05:25;9.30;;;3.65;;
50531;SDS011;36483;37.396;-122.212;2022-07-18T02:07:51;11.55;;;3.95;;
50531;SDS011;36483;37.396;-122.212;2022-07-18T02:10:19;13.00;;;4.43;;
50531;SDS011;36483;37.396;-122.212;2022-07-18T02:12:46;15.82;;;4.50;;
50531;SDS011;36483;37.396;-122.212;2022-07-18T02:15:13;15.85;;;4.22;;
50531;SDS011;36483;37.396;-122.212;2022-07-18T02:17:41;14.20;;;4.22;;
50531;SDS011;36483;37.396;-122.212;2022-07-18T02:20:08;15.60;;;4.65;;
50531;SDS011;36483;37.396;-122.212;2022-07-18T02:22:36;15.80;;;4.30;;
50531;SDS011;36483;37.396;-122.212;2022-07-18T02:25:02;13.23;;;4.63;;
50531;SDS011;36483;37.396;-122.212;2022-07-18T02:27:29;11.35;;;4.25;;
50531;SDS011;36483;37.396;-122.212;2022-07-18T02:29:55;13.80;;;4.35;;
50531;SDS011;36483;37.396;-122.212;2022-07-18T02:32:21;13.23;;;4.65;;
50531;SDS011;36483;37.396;-122.212;2022-07-18T02:34:48;14.60;;;4.40;;
50531;SDS011;36483;37.396;-122.212;2022-07-18T02:37:15;15.10;;;4.43;;
50531;SDS011;36483;37.396;-122.212;2022-07-18T02:39:41;14.35;;;4.72;;
50531;SDS011;36483;37.396;-122.212;2022-07-18T02:42:07;16.40;;;4.65;;
50531;SDS011;36483;37.396;-122.212;2022-07-18T02:44:34;15.55;;;5.07;;
50531;SDS011;36483;37.396;-122.212;2022-07-18T02:47:00;16.08;;;4.78;;
50531;SDS011;36483;37.396;-122.212;2022-07-18T02:49:26;16.30;;;4.88;;
50531;SDS011;36483;37.396;-122.212;2022-07-18T02:51:56;20.40;;;5.32;;
50531;SDS011;36483;37.396;-122.212;2022-07-18T02:54:24;19.23;;;5.03;;
50531;SDS011;36483;37.396;-122.212;2022-07-18T02:56:51;15.13;;;4.70;;
50531;SDS011;36483;37.396;-122.212;2022-07-18T02:59:17;15.65;;;4.97;;
50531;SDS011;36483;37.396;-122.212;2022-07-18T03:01:43;15.10;;;4.57;;
50531;SDS011;36483;37.396;-122.212;2022-07-18T03:04:09;20.85;;;5.13;;
50531;SDS011;36483;37.396;-122.212;2022-07-18T03:06:35;20.88;;;4.90;;
50531;SDS011;36483;37.396;-122.212;2022-07-18T03:09:02;21.52;;;5.45;;
50531;SDS011;36483;37.396;-122.212;2022-07-18T03:11:29;21.75;;;5.55;;
50531;SDS011;36483;37.396;-122.212;2022-07-18T03:13:55;18.10;;;4.97;;
50531;SDS011;36483;37.396;-122.212;2022-07-18T03:16:22;16.33;;;4.97;;
50531;SDS011;36483;37.396;-122.212;2022-07-18T03:18:48;19.10;;;5.30;;
50531;SDS011;36483;37.396;-122.212;2022-07-18T03:21:14;19.00;;;5.35;;
50531;SDS011;36483;37.396;-122.212;2022-07-18T03:23:40;21.58;;;5.75;;
50531;SDS011;36483;37.396;-122.212;2022-07-18T03:26:06;16.90;;;5.00;;
50531;SDS011;36483;37.396;-122.212;2022-07-18T03:28:32;19.30;;;5.95;;
50531;SDS011;36483;37.396;-122.212;2022-07-18T03:30:58;17.90;;;4.78;;
50531;SDS011;36483;37.396;-122.212;2022-07-18T03:33:25;19.80;;;5.32;;
50531;SDS011;36483;37.396;-122.212;2022-07-18T03:35:52;15.25;;;5.32;;
50531;SDS011;36483;37.396;-122.212;2022-07-18T03:38:18;23.80;;;5.63;;
50531;SDS011;36483;37.396;-122.212;2022-07-18T03:40:44;15.10;;;4.95;;
50531;SDS011;36483;37.396;-122.212;2022-07-18T03:43:10;19.20;;;5.00;;
50531;SDS011;36483;37.396;-122.212;2022-07-18T03:45:36;15.15;;;4.07;;
50531;SDS011;36483;37.396;-122.212;2022-07-18T03:48:02;17.75;;;4.90;;
50531;SDS011;36483;37.396;-122.212;2022-07-18T03:50:29;20.10;;;5.65;;
50531;SDS011;36483;37.396;-122.212;2022-07-18T03:52:55;14.68;;;5.18;;
50531;SDS011;36483;37.396;-122.212;2022-07-18T03:55:21;18.20;;;5.32;;
50531;SDS011;36483;37.396;-122.212;2022-07-18T03:57:47;20.55;;;5.50;;
50531;SDS011;36483;37.396;-122.212;2022-07-18T04:00:13;19.13;;;5.55;;
50531;SDS011;36483;37.396;-122.212;2022-07-18T04:02:43;18.60;;;5.60;;
50531;SDS011;36483;37.396;-122.212;2022-07-18T04:05:11;20.95;;;5.88;;
50531;SDS011;36483;37.396;-122.212;2022-07-18T04:07:38;18.30;;;5.40;;
50531;SDS011;36483;37.396;-122.212;2022-07-18T04:10:05;16.13;;;5.57;;
50531;SDS011;36483;37.396;-122.212;2022-07-18T04:12:32;21.52;;;5.63;;
50531;SDS011;36483;37.396;-122.212;2022-07-18T04:14:59;18.73;;;6.28;;
50531;SDS011;36483;37.396;-122.212;2022-07-18T04:17:25;21.73;;;5.40;;
50531;SDS011;36483;37.396;-122.212;2022-07-18T04:19:51;19.95;;;5.43;;
50531;SDS011;36483;37.396;-122.212;2022-07-18T04:22:17;20.25;;;6.00;;
50531;SDS011;36483;37.396;-122.212;2022-07-18T04:24:44;17.30;;;4.88;;
50531;SDS011;36483;37.396;-122.212;2022-07-18T04:27:10;22.45;;;5.70;;
50531;SDS011;36483;37.396;-122.212;2022-07-18T04:29:36;18.38;;;5.88;;
50531;SDS011;36483;37.396;-122.212;2022-07-18T04:32:02;17.40;;;5.25;;
50531;SDS011;36483;37.396;-122.212;2022-07-18T04:34:29;21.45;;;5.00;;
50531;SDS011;36483;37.396;-122.212;2022-07-18T04:36:55;21.50;;;6.22;;
50531;SDS011;36483;37.396;-122.212;2022-07-18T04:39:21;25.50;;;5.47;;
50531;SDS011;36483;37.396;-122.212;2022-07-18T04:41:47;22.10;;;6.15;;
50531;SDS011;36483;37.396;-122.212;2022-07-18T04:44:13;21.27;;;5.72;;
50531;SDS011;36483;37.396;-122.212;2022-07-18T04:46:39;24.50;;;5.80;;
50531;SDS011;36483;37.396;-122.212;2022-07-18T04:49:05;20.58;;;6.00;;
50531;SDS011;36483;37.396;-122.212;2022-07-18T04:51:31;20.67;;;5.63;;
50531;SDS011;36483;37.396;-122.212;2022-07-18T04:53:58;22.33;;;5.85;;
50531;SDS011;36483;37.396;-122.212;2022-07-18T04:56:24;20.08;;;5.10;;
50531;SDS011;36483;37.396;-122.212;2022-07-18T04:58:50;25.42;;;6.18;;
50531;SDS011;36483;37.396;-122.212;2022-07-18T05:01:16;19.83;;;5.35;;
50531;SDS011;36483;37.396;-122.212;2022-07-18T05:03:42;17.13;;;5.70;;
50531;SDS011;36483;37.396;-122.212;2022-07-18T05:06:08;22.38;;;5.72;;
50531;SDS011;36483;37.396;-122.212;2022-07-18T05:08:34;26.67;;;6.28;;
50531;SDS011;36483;37.396;-122.212;2022-07-18T05:11:00;21.15;;;6.28;;
50531;SDS011;36483;37.396;-122.212;2022-07-18T05:13:27;21.20;;;6.15;;
50531;SDS011;36483;37.396;-122.212;2022-07-18T05:15:53;21.25;;;5.80;;
50531;SDS011;36483;37.396;-122.212;2022-07-18T05:18:19;24.08;;;5.75;;
50531;SDS011;36483;37.396;-122.212;2022-07-18T05:20:45;23.48;;;5.93;;
50531;SDS011;36483;37.396;-122.212;2022-07-18T05:23:14;19.95;;;5.60;;
50531;SDS011;36483;37.396;-122.212;2022-07-18T05:25:40;22.90;;;6.43;;
50531;SDS011;36483;37.396;-122.212;2022-07-18T05:28:07;24.67;;;6.03;;
50531;SDS011;36483;37.396;-122.212;2022-07-18T05:30:33;17.00;;;5.63;;
50531;SDS011;36483;37.396;-122.212;2022-07-18T05:32:59;18.80;;;5.57;;
50531;SDS011;36483;37.396;-122.212;2022-07-18T05:35:25;20.85;;;5.72;;
50531;SDS011;36483;37.396;-122.212;2022-07-18T05:37:51;24.80;;;5.80;;
50531;SDS011;36483;37.396;-122.212;2022-07-18T05:40:17;18.10;;;5.82;;
50531;SDS011;36483;37.396;-122.212;2022-07-18T05:42:43;16.90;;;5.97;;
50531;SDS011;36483;37.396;-122.212;2022-07-18T05:45:11;17.73;;;5.38;;
50531;SDS011;36483;37.396;-122.212;2022-07-18T05:47:37;20.75;;;5.68;;
50531;SDS011;36483;37.396;-122.212;2022-07-18T05:50:04;20.88;;;5.20;;
50531;SDS011;36483;37.396;-122.212;2022-07-18T05:52:31;16.67;;;5.97;;
50531;SDS011;36483;37.396;-122.212;2022-07-18T05:54:57;22.23;;;6.43;;
50531;SDS011;36483;37.396;-122.212;2022-07-18T05:57:23;21.50;;;6.22;;
50531;SDS011;36483;37.396;-122.212;2022-07-18T05:59:49;22.90;;;6.45;;
50531;SDS011;36483;37.396;-122.212;2022-07-18T06:02:15;22.02;;;5.97;;
50531;SDS011;36483;37.396;-122.212;2022-07-18T06:04:41;20.95;;;5.10;;
50531;SDS011;36483;37.396;-122.212;2022-07-18T06:07:07;23.55;;;5.68;;
50531;SDS011;36483;37.396;-122.212;2022-07-18T06:09:34;18.48;;;5.15;;
50531;SDS011;36483;37.396;-122.212;2022-07-18T06:12:00;17.00;;;6.32;;
50531;SDS011;36483;37.396;-122.212;2022-07-18T06:14:27;20.95;;;6.18;;
50531;SDS011;36483;37.396;-122.212;2022-07-18T06:16:54;24.65;;;6.43;;
50531;SDS011;36483;37.396;-122.212;2022-07-18T06:19:20;19.70;;;5.50;;
50531;SDS011;36483;37.396;-122.212;2022-07-18T06:21:46;21.85;;;5.28;;
50531;SDS011;36483;37.396;-122.212;2022-07-18T06:24:13;18.40;;;5.63;;
50531;SDS011;36483;37.396;-122.212;2022-07-18T06:26:39;24.52;;;5.88;;
50531;SDS011;36483;37.396;-122.212;2022-07-18T06:29:05;17.90;;;5.63;;
50531;SDS011;36483;37.396;-122.212;2022-07-18T06:31:31;21.85;;;5.85;;
50531;SDS011;36483;37.396;-122.212;2022-07-18T06:33:57;22.02;;;5.70;;
50531;SDS011;36483;37.396;-122.212;2022-07-18T06:36:23;21.80;;;6.72;;
50531;SDS011;36483;37.396;-122.212;2022-07-18T06:38:50;18.85;;;5.93;;
50531;SDS011;36483;37.396;-122.212;2022-07-18T06:41:17;14.02;;;5.25;;
50531;SDS011;36483;37.396;-122.212;2022-07-18T06:43:43;20.98;;;5.57;;
50531;SDS011;36483;37.396;-122.212;2022-07-18T06:46:10;19.13;;;5.93;;
50531;SDS011;36483;37.396;-122.212;2022-07-18T06:48:36;20.98;;;6.03;;
50531;SDS011;36483;37.396;-122.212;2022-07-18T06:51:02;26.63;;;6.05;;
50531;SDS011;36483;37.396;-122.212;2022-07-18T06:53:29;24.67;;;6.03;;
50531;SDS011;36483;37.396;-122.212;2022-07-18T06:55:56;22.27;;;6.40;;
50531;SDS011;36483;37.396;-122.212;2022-07-18T06:58:22;20.92;;;5.93;;
50531;SDS011;36483;37.396;-122.212;2022-07-18T07:00:49;21.60;;;5.88;;
50531;SDS011;36483;37.396;-122.212;2022-07-18T07:03:15;19.60;;;5.25;;
50531;SDS011;36483;37.396;-122.212;2022-07-18T07:05:41;21.60;;;5.82;;
50531;SDS011;36483;37.396;-122.212;2022-07-18T07:08:07;24.30;;;6.05;;
50531;SDS011;36483;37.396;-122.212;2022-07-18T07:10:34;21.65;;;6.57;;
50531;SDS011;36483;37.396;-122.212;2022-07-18T07:13:00;24.23;;;5.93;;
50531;SDS011;36483;37.396;-122.212;2022-07-18T07:15:26;19.45;;;5.88;;
50531;SDS011;36483;37.396;-122.212;2022-07-18T07:17:52;20.98;;;6.07;;
50531;SDS011;36483;37.396;-122.212;2022-07-18T07:20:18;21.67;;;5.60;;
50531;SDS011;36483;37.396;-122.212;2022-07-18T07:22:49;19.50;;;6.05;;
50531;SDS011;36483;37.396;-122.212;2022-07-18T07:25:21;21.27;;;6.03;;
50531;SDS011;36483;37.396;-122.212;2022-07-18T07:27:49;18.02;;;5.75;;
50531;SDS011;36483;37.396;-122.212;2022-07-18T07:30:15;21.38;;;6.13;;
50531;SDS011;36483;37.396;-122.212;2022-07-18T07:32:42;23.08;;;6.07;;
50531;SDS011;36483;37.396;-122.212;2022-07-18T07:35:10;21.85;;;6.50;;
50531;SDS011;36483;37.396;-122.212;2022-07-18T07:37:41;21.98;;;5.65;;
50531;SDS011;36483;37.396;-122.212;2022-07-18T07:40:09;20.50;;;5.95;;
50531;SDS011;36483;37.396;-122.212;2022-07-18T07:42:36;16.20;;;5.05;;
50531;SDS011;36483;37.396;-122.212;2022-07-18T07:45:02;23.52;;;6.43;;
50531;SDS011;36483;37.396;-122.212;2022-07-18T07:47:29;21.85;;;6.15;;
50531;SDS011;36483;37.396;-122.212;2022-07-18T07:49:56;22.30;;;6.00;;
50531;SDS011;36483;37.396;-122.212;2022-07-18T07:52:22;23.52;;;6.72;;
50531;SDS011;36483;37.396;-122.212;2022-07-18T07:54:51;21.70;;;5.88;;
50531;SDS011;36483;37.396;-122.212;2022-07-18T07:57:18;22.48;;;7.30;;
50531;SDS011;36483;37.396;-122.212;2022-07-18T07:59:44;21.23;;;6.03;;
50531;SDS011;36483;37.396;-122.212;2022-07-18T08:02:10;21.08;;;6.43;;
50531;SDS011;36483;37.396;-122.212;2022-07-18T08:04:37;25.83;;;6.07;;
50531;SDS011;36483;37.396;-122.212;2022-07-18T08:07:03;22.88;;;5.95;;
50531;SDS011;36483;37.396;-122.212;2022-07-18T08:09:29;24.90;;;7.03;;
50531;SDS011;36483;37.396;-122.212;2022-07-18T08:11:55;24.73;;;6.80;;
50531;SDS011;36483;37.396;-122.212;2022-07-18T08:14:22;20.80;;;6.30;;
50531;SDS011;36483;37.396;-122.212;2022-07-18T08:16:48;25.08;;;6.90;;
50531;SDS011;36483;37.396;-122.212;2022-07-18T08:19:14;27.60;;;6.35;;
50531;SDS011;36483;37.396;-122.212;2022-07-18T08:21:40;18.02;;;5.65;;
50531;SDS011;36483;37.396;-122.212;2022-07-18T08:24:06;19.63;;;6.40;;
50531;SDS011;36483;37.396;-122.212;2022-07-18T08:26:32;22.15;;;6.53;;
50531;SDS011;36483;37.396;-122.212;2022-07-18T08:29:01;21.30;;;6.35;;
50531;SDS011;36483;37.396;-122.212;2022-07-18T08:31:28;26.58;;;6.88;;
50531;SDS011;36483;37.396;-122.212;2022-07-18T08:33:54;20.70;;;6.13;;
50531;SDS011;36483;37.396;-122.212;2022-07-18T08:36:20;25.70;;;6.38;;
50531;SDS011;36483;37.396;-122.212;2022-07-18T08:38:46;20.83;;;5.70;;
50531;SDS011;36483;37.396;-122.212;2022-07-18T08:41:12;22.13;;;6.28;;
50531;SDS011;36483;37.396;-122.212;2022-07-18T08:43:42;22.20;;;6.07;;
50531;SDS011;36483;37.396;-122.212;2022-07-18T08:46:09;22.42;;;5.93;;
50531;SDS011;36483;37.396;-122.212;2022-07-18T08:48:36;23.73;;;6.78;;
50531;SDS011;36483;37.396;-122.212;2022-07-18T08:51:02;19.80;;;5.93;;
50531;SDS011;36483;37.396;-122.212;2022-07-18T08:53:28;24.08;;;6.50;;
50531;SDS011;36483;37.396;-122.212;2022-07-18T08:55:54;18.65;;;5.97;;
50531;SDS011;36483;37.396;-122.212;2022-07-18T08:58:21;22.63;;;5.97;;
50531;SDS011;36483;37.396;-122.212;2022-07-18T09:00:47;19.50;;;6.38;;
50531;SDS011;36483;37.396;-122.212;2022-07-18T09:03:13;21.40;;;5.82;;
50531;SDS011;36483;37.396;-122.212;2022-07-18T09:05:39;20.25;;;6.30;;
50531;SDS011;36483;37.396;-122.212;2022-07-18T09:08:13;21.85;;;6.72;;
50531;SDS011;36483;37.396;-122.212;2022-07-18T09:10:55;22.90;;;6.40;;
50531;SDS011;36483;37.396;-122.212;2022-07-18T09:13:40;23.05;;;5.68;;
50531;SDS011;36483;37.396;-122.212;2022-07-18T09:18:41;20.13;;;6.32;;
50531;SDS011;36483;37.396;-122.212;2022-07-18T09:21:13;21.95;;;6.43;;
50531;SDS011;36483;37.396;-122.212;2022-07-18T09:23:47;21.90;;;6.38;;
50531;SDS011;36483;37.396;-122.212;2022-07-18T09:26:33;26.35;;;6.03;;
50531;SDS011;36483;37.396;-122.212;2022-07-18T09:29:02;23.27;;;6.28;;
50531;SDS011;36483;37.396;-122.212;2022-07-18T09:31:30;23.23;;;6.45;;
50531;SDS011;36483;37.396;-122.212;2022-07-18T09:33:57;26.95;;;6.88;;
50531;SDS011;36483;37.396;-122.212;2022-07-18T09:36:25;20.48;;;6.03;;
50531;SDS011;36483;37.396;-122.212;2022-07-18T09:38:52;18.88;;;6.05;;
50531;SDS011;36483;37.396;-122.212;2022-07-18T09:41:25;24.17;;;6.82;;
50531;SDS011;36483;37.396;-122.212;2022-07-18T09:43:53;21.17;;;6.20;;
50531;SDS011;36483;37.396;-122.212;2022-07-18T09:46:19;16.08;;;6.22;;
50531;SDS011;36483;37.396;-122.212;2022-07-18T09:48:45;18.30;;;5.78;;
50531;SDS011;36483;37.396;-122.212;2022-07-18T09:51:11;23.40;;;5.93;;
50531;SDS011;36483;37.396;-122.212;2022-07-18T09:53:38;21.25;;;6.50;;
50531;SDS011;36483;37.396;-122.212;2022-07-18T09:56:09;25.75;;;6.80;;
50531;SDS011;36483;37.396;-122.212;2022-07-18T09:58:58;20.08;;;5.60;;
50531;SDS011;36483;37.396;-122.212;2022-07-18T10:01:23;21.95;;;6.40;;
50531;SDS011;36483;37.396;-122.212;2022-07-18T10:03:49;21.85;;;6.43;;
50531;SDS011;36483;37.396;-122.212;2022-07-18T10:06:16;24.55;;;6.90;;
50531;SDS011;36483;37.396;-122.212;2022-07-18T10:08:43;22.05;;;6.47;;
50531;SDS011;36483;37.396;-122.212;2022-07-18T10:11:09;17.40;;;6.07;;
50531;SDS011;36483;37.396;-122.212;2022-07-18T10:13:36;22.75;;;5.82;;
50531;SDS011;36483;37.396;-122.212;2022-07-18T10:16:03;20.60;;;6.63;;
50531;SDS011;36483;37.396;-122.212;2022-07-18T10:18:34;19.75;;;6.38;;
50531;SDS011;36483;37.396;-122.212;2022-07-18T10:21:05;19.45;;;5.85;;
50531;SDS011;36483;37.396;-122.212;2022-07-18T10:23:35;20.17;;;5.80;;
50531;SDS011;36483;37.396;-122.212;2022-07-18T10:26:18;22.00;;;6.17;;
50531;SDS011;36483;37.396;-122.212;2022-07-18T10:31:28;29.75;;;6.97;;
50531;SDS011;36483;37.396;-122.212;2022-07-18T10:36:38;18.38;;;6.05;;
50531;SDS011;36483;37.396;-122.212;2022-07-18T10:57:37;20.20;;;6.18;;
50531;SDS011;36483;37.396;-122.212;2022-07-18T11:02:39;25.83;;;7.03;;
50531;SDS011;36483;37.396;-122.212;2022-07-18T11:16:03;22.73;;;6.50;;
50531;SDS011;36483;37.396;-122.212;2022-07-18T11:23:43;22.75;;;6.22;;
50531;SDS011;36483;37.396;-122.212;2022-07-18T11:26:17;18.30;;;5.82;;
50531;SDS011;36483;37.396;-122.212;2022-07-18T11:28:48;23.52;;;6.20;;
50531;SDS011;36483;37.396;-122.212;2022-07-18T11:31:21;22.73;;;6.63;;
50531;SDS011;36483;37.396;-122.212;2022-07-18T11:33:48;23.48;;;6.35;;
50531;SDS011;36483;37.396;-122.212;2022-07-18T11:36:16;18.40;;;6.40;;
50531;SDS011;36483;37.396;-122.212;2022-07-18T11:38:53;20.23;;;5.97;;
50531;SDS011;36483;37.396;-122.212;2022-07-18T11:41:20;17.45;;;5.45;;
50531;SDS011;36483;37.396;-122.212;2022-07-18T11:43:47;20.92;;;6.22;;
50531;SDS011;36483;37.396;-122.212;2022-07-18T11:46:16;20.02;;;6.25;;
50531;SDS011;36483;37.396;-122.212;2022-07-18T11:48:44;22.13;;;6.88;;
50531;SDS011;36483;37.396;-122.212;2022-07-18T11:51:12;24.45;;;6.97;;
50531;SDS011;36483;37.396;-122.212;2022-07-18T11:53:49;18.75;;;6.43;;
50531;SDS011;36483;37.396;-122.212;2022-07-18T11:56:16;21.25;;;6.35;;
50531;SDS011;36483;37.396;-122.212;2022-07-18T11:58:44;21.45;;;6.40;;
50531;SDS011;36483;37.396;-122.212;2022-07-18T12:01:12;17.23;;;5.78;;
50531;SDS011;36483;37.396;-122.212;2022-07-18T12:03:47;19.77;;;5.78;;
50531;SDS011;36483;37.396;-122.212;2022-07-18T12:06:17;18.35;;;5.72;;
50531;SDS011;36483;37.396;-122.212;2022-07-18T12:08:48;17.83;;;5.65;;
50531;SDS011;36483;37.396;-122.212;2022-07-18T12:11:24;22.25;;;6.50;;
50531;SDS011;36483;37.396;-122.212;2022-07-18T12:13:53;19.08;;;5.97;;
50531;SDS011;36483;37.396;-122.212;2022-07-18T12:19:06;22.63;;;6.20;;
50531;SDS011;36483;37.396;-122.212;2022-07-18T12:24:35;17.13;;;5.88;;
50531;SDS011;36483;37.396;-122.212;2022-07-18T12:27:25;22.65;;;5.50;;
50531;SDS011;36483;37.396;-122.212;2022-07-18T12:32:42;20.35;;;5.95;;
50531;SDS011;36483;37.396;-122.212;2022-07-18T12:38:06;20.63;;;5.93;;
50531;SDS011;36483;37.396;-122.212;2022-07-18T12:40:46;15.27;;;5.40;;
50531;SDS011;36483;37.396;-122.212;2022-07-18T12:43:24;19.55;;;5.22;;
50531;SDS011;36483;37.396;-122.212;2022-07-18T12:45:53;19.13;;;5.60;;
50531;SDS011;36483;37.396;-122.212;2022-07-18T12:48:21;20.42;;;6.00;;
50531;SDS011;36483;37.396;-122.212;2022-07-18T12:50:57;18.38;;;6.07;;
50531;SDS011;36483;37.396;-122.212;2022-07-18T12:53:28;18.67;;;5.82;;
50531;SDS011;36483;37.396;-122.212;2022-07-18T12:55:55;20.83;;;6.00;;
50531;SDS011;36483;37.396;-122.212;2022-07-18T12:58:22;19.95;;;5.65;;
50531;SDS011;36483;37.396;-122.212;2022-07-18T13:00:48;20.00;;;5.45;;
50531;SDS011;36483;37.396;-122.212;2022-07-18T13:03:15;18.73;;;5.53;;
50531;SDS011;36483;37.396;-122.212;2022-07-18T13:05:41;16.63;;;5.43;;
50531;SDS011;36483;37.396;-122.212;2022-07-18T13:08:08;18.23;;;5.85;;
50531;SDS011;36483;37.396;-122.212;2022-07-18T13:10:36;18.38;;;5.68;;
50531;SDS011;36483;37.396;-122.212;2022-07-18T13:13:03;19.98;;;5.95;;
50531;SDS011;36483;37.396;-122.212;2022-07-18T13:15:33;18.98;;;6.22;;
50531;SDS011;36483;37.396;-122.212;2022-07-18T13:18:00;16.58;;;5.78;;
50531;SDS011;36483;37.396;-122.212;2022-07-18T13:20:26;15.95;;;5.32;;
50531;SDS011;36483;37.396;-122.212;2022-07-18T13:22:52;14.68;;;5.03;;
50531;SDS011;36483;37.396;-122.212;2022-07-18T13:25:19;20.77;;;6.45;;
50531;SDS011;36483;37.396;-122.212;2022-07-18T13:27:47;21.00;;;5.80;;
50531;SDS011;36483;37.396;-122.212;2022-07-18T13:30:14;16.15;;;5.93;;
50531;SDS011;36483;37.396;-122.212;2022-07-18T13:32:40;18.65;;;5.93;;
50531;SDS011;36483;37.396;-122.212;2022-07-18T13:35:10;15.32;;;5.45;;
50531;SDS011;36483;37.396;-122.212;2022-07-18T13:37:37;14.63;;;5.82;;
50531;SDS011;36483;37.396;-122.212;2022-07-18T13:40:03;15.07;;;5.10;;
50531;SDS011;36483;37.396;-122.212;2022-07-18T13:42:31;18.15;;;5.80;;
50531;SDS011;36483;37.396;-122.212;2022-07-18T13:44:58;17.23;;;5.82;;
50531;SDS011;36483;37.396;-122.212;2022-07-18T13:47:24;15.60;;;5.63;;
50531;SDS011;36483;37.396;-122.212;2022-07-18T13:49:50;15.38;;;5.93;;
50531;SDS011;36483;37.396;-122.212;2022-07-18T13:52:16;18.80;;;6.20;;
50531;SDS011;36483;37.396;-122.212;2022-07-18T13:54:42;20.17;;;6.70;;
50531;SDS011;36483;37.396;-122.212;2022-07-18T13:57:09;16.60;;;6.18;;
50531;SDS011;36483;37.396;-122.212;2022-07-18T13:59:35;16.65;;;5.57;;
50531;SDS011;36483;37.396;-122.212;2022-07-18T14:02:01;18.67;;;6.22;;
50531;SDS011;36483;37.396;-122.212;2022-07-18T14:04:27;17.88;;;6.30;;
50531;SDS011;36483;37.396;-122.212;2022-07-18T14:06:53;20.60;;;6.15;;
50531;SDS011;36483;37.396;-122.212;2022-07-18T14:09:19;21.63;;;6.18;;
50531;SDS011;36483;37.396;-122.212;2022-07-18T14:11:45;19.13;;;5.35;;
50531;SDS011;36483;37.396;-122.212;2022-07-18T14:14:11;23.80;;;6.53;;
50531;SDS011;36483;37.396;-122.212;2022-07-18T14:16:38;18.23;;;6.32;;
50531;SDS011;36483;37.396;-122.212;2022-07-18T14:19:04;17.70;;;6.82;;
50531;SDS011;36483;37.396;-122.212;2022-07-18T14:21:30;25.55;;;7.18;;
50531;SDS011;36483;37.396;-122.212;2022-07-18T14:23:57;23.85;;;6.50;;
50531;SDS011;36483;37.396;-122.212;2022-07-18T14:26:23;25.70;;;7.05;;
50531;SDS011;36483;37.396;-122.212;2022-07-18T14:28:51;23.30;;;7.22;;
50531;SDS011;36483;37.396;-122.212;2022-07-18T14:31:17;25.55;;;6.97;;
50531;SDS011;36483;37.396;-122.212;2022-07-18T14:33:43;17.88;;;5.90;;
50531;SDS011;36483;37.396;-122.212;2022-07-18T14:36:09;23.23;;;6.55;;
50531;SDS011;36483;37.396;-122.212;2022-07-18T14:38:36;28.52;;;7.43;;
50531;SDS011;36483;37.396;-122.212;2022-07-18T14:41:03;24.75;;;7.13;;
50531;SDS011;36483;37.396;-122.212;2022-07-18T14:43:29;27.52;;;7.07;;
50531;SDS011;36483;37.396;-122.212;2022-07-18T14:45:55;23.77;;;6.60;;
50531;SDS011;36483;37.396;-122.212;2022-07-18T14:48:22;25.08;;;7.05;;
50531;SDS011;36483;37.396;-122.212;2022-07-18T14:50:48;23.85;;;6.15;;
50531;SDS011;36483;37.396;-122.212;2022-07-18T14:53:14;19.40;;;6.68;;